<?xml version="1.0" encoding="UTF-8" standalone="no" ?>
<gpx xmlns="http://www.topografix.com/GPX/1/1" xmlns:xsi="http://www.w3.org/2001/XMLSchema-instance" xsi:schemaLocation="http://www.topografix.com/GPX/1/1 http://www.topografix.com/GPX/1/1/gpx.xsd" version="1.1" creator="VisuGPX - https://www.visugpx.com">
  <metadata>
    <name>La Faboulie-Chateau-peyrolles</name>
  </metadata>
  <trk>
    <name><![CDATA[10899910-peyrolles]]></name>
    <trkseg>
      <trkpt lat="44.20317" lon="2.21539">
        <ele>451</ele>
        <time>2020-02-02T17:48:18Z</time>
      </trkpt>
      <trkpt lat="44.20274" lon="2.21529">
        <ele>452</ele>
        <time>2020-02-02T17:48:53Z</time>
      </trkpt>
      <trkpt lat="44.20274" lon="2.21532">
        <ele>452</ele>
        <time>2020-02-02T17:48:55Z</time>
      </trkpt>
      <trkpt lat="44.20272" lon="2.21528">
        <ele>452</ele>
        <time>2020-02-02T17:48:57Z</time>
      </trkpt>
      <trkpt lat="44.20273" lon="2.21536">
        <ele>452</ele>
        <time>2020-02-02T17:49:02Z</time>
      </trkpt>
      <trkpt lat="44.20265" lon="2.21553">
        <ele>451</ele>
        <time>2020-02-02T17:49:14Z</time>
      </trkpt>
      <trkpt lat="44.20246" lon="2.21568">
        <ele>451</ele>
        <time>2020-02-02T17:49:31Z</time>
      </trkpt>
      <trkpt lat="44.20238" lon="2.2157">
        <ele>449</ele>
        <time>2020-02-02T17:49:38Z</time>
      </trkpt>
      <trkpt lat="44.20238" lon="2.2158">
        <ele>449</ele>
        <time>2020-02-02T17:49:43Z</time>
      </trkpt>
      <trkpt lat="44.20235" lon="2.2158">
        <ele>449</ele>
        <time>2020-02-02T17:49:46Z</time>
      </trkpt>
      <trkpt lat="44.20236" lon="2.21574">
        <ele>449</ele>
        <time>2020-02-02T17:49:49Z</time>
      </trkpt>
      <trkpt lat="44.20201" lon="2.21619">
        <ele>441</ele>
        <time>2020-02-02T17:50:28Z</time>
      </trkpt>
      <trkpt lat="44.20175" lon="2.21674">
        <ele>434</ele>
        <time>2020-02-02T17:51:05Z</time>
      </trkpt>
      <trkpt lat="44.20163" lon="2.21688">
        <ele>431</ele>
        <time>2020-02-02T17:51:18Z</time>
      </trkpt>
      <trkpt lat="44.20157" lon="2.21715">
        <ele>425</ele>
        <time>2020-02-02T17:51:34Z</time>
      </trkpt>
      <trkpt lat="44.20166" lon="2.21679">
        <ele>433</ele>
        <time>2020-02-02T17:51:56Z</time>
      </trkpt>
      <trkpt lat="44.20163" lon="2.21678">
        <ele>432</ele>
        <time>2020-02-02T17:51:58Z</time>
      </trkpt>
      <trkpt lat="44.2015" lon="2.21696">
        <ele>427</ele>
        <time>2020-02-02T17:52:13Z</time>
      </trkpt>
      <trkpt lat="44.20135" lon="2.21727">
        <ele>421</ele>
        <time>2020-02-02T17:52:35Z</time>
      </trkpt>
      <trkpt lat="44.20129" lon="2.21754">
        <ele>418</ele>
        <time>2020-02-02T17:52:51Z</time>
      </trkpt>
      <trkpt lat="44.20116" lon="2.21742">
        <ele>419</ele>
        <time>2020-02-02T17:53:03Z</time>
      </trkpt>
      <trkpt lat="44.20104" lon="2.21742">
        <ele>418</ele>
        <time>2020-02-02T17:53:13Z</time>
      </trkpt>
      <trkpt lat="44.20092" lon="2.21752">
        <ele>417</ele>
        <time>2020-02-02T17:53:24Z</time>
      </trkpt>
      <trkpt lat="44.20087" lon="2.21762">
        <ele>415</ele>
        <time>2020-02-02T17:53:31Z</time>
      </trkpt>
      <trkpt lat="44.20084" lon="2.21775">
        <ele>413</ele>
        <time>2020-02-02T17:53:39Z</time>
      </trkpt>
      <trkpt lat="44.20087" lon="2.21797">
        <ele>410</ele>
        <time>2020-02-02T17:53:52Z</time>
      </trkpt>
      <trkpt lat="44.20094" lon="2.21804">
        <ele>408</ele>
        <time>2020-02-02T17:53:59Z</time>
      </trkpt>
      <trkpt lat="44.20113" lon="2.21809">
        <ele>405</ele>
        <time>2020-02-02T17:54:14Z</time>
      </trkpt>
      <trkpt lat="44.20115" lon="2.21818">
        <ele>402</ele>
        <time>2020-02-02T17:54:20Z</time>
      </trkpt>
      <trkpt lat="44.20116" lon="2.21853">
        <ele>393</ele>
        <time>2020-02-02T17:54:40Z</time>
      </trkpt>
      <trkpt lat="44.20109" lon="2.21876">
        <ele>388</ele>
        <time>2020-02-02T17:54:54Z</time>
      </trkpt>
      <trkpt lat="44.20109" lon="2.21864">
        <ele>391</ele>
        <time>2020-02-02T17:55:01Z</time>
      </trkpt>
      <trkpt lat="44.20116" lon="2.21876">
        <ele>386</ele>
        <time>2020-02-02T17:55:10Z</time>
      </trkpt>
      <trkpt lat="44.2011" lon="2.21877">
        <ele>387</ele>
        <time>2020-02-02T17:55:15Z</time>
      </trkpt>
      <trkpt lat="44.20108" lon="2.21873">
        <ele>389</ele>
        <time>2020-02-02T17:55:17Z</time>
      </trkpt>
      <trkpt lat="44.20107" lon="2.2186">
        <ele>393</ele>
        <time>2020-02-02T17:55:25Z</time>
      </trkpt>
      <trkpt lat="44.2011" lon="2.21858">
        <ele>393</ele>
        <time>2020-02-02T17:55:28Z</time>
      </trkpt>
      <trkpt lat="44.20136" lon="2.21864">
        <ele>386</ele>
        <time>2020-02-02T17:55:49Z</time>
      </trkpt>
      <trkpt lat="44.20153" lon="2.21863">
        <ele>383</ele>
        <time>2020-02-02T17:56:02Z</time>
      </trkpt>
      <trkpt lat="44.20156" lon="2.21868">
        <ele>381</ele>
        <time>2020-02-02T17:56:06Z</time>
      </trkpt>
      <trkpt lat="44.20153" lon="2.21882">
        <ele>377</ele>
        <time>2020-02-02T17:56:14Z</time>
      </trkpt>
      <trkpt lat="44.20136" lon="2.21904">
        <ele>374</ele>
        <time>2020-02-02T17:56:33Z</time>
      </trkpt>
      <trkpt lat="44.20133" lon="2.21949">
        <ele>367</ele>
        <time>2020-02-02T17:56:59Z</time>
      </trkpt>
      <trkpt lat="44.20111" lon="2.21993">
        <ele>360</ele>
        <time>2020-02-02T17:57:30Z</time>
      </trkpt>
      <trkpt lat="44.20096" lon="2.21997">
        <ele>359</ele>
        <time>2020-02-02T17:57:42Z</time>
      </trkpt>
      <trkpt lat="44.20048" lon="2.21981">
        <ele>361</ele>
        <time>2020-02-02T17:58:21Z</time>
      </trkpt>
      <trkpt lat="44.20089" lon="2.22016">
        <ele>358</ele>
        <time>2020-02-02T17:59:00Z</time>
      </trkpt>
      <trkpt lat="44.2008" lon="2.2203">
        <ele>358</ele>
        <time>2020-02-02T17:59:11Z</time>
      </trkpt>
      <trkpt lat="44.20086" lon="2.22046">
        <ele>359</ele>
        <time>2020-02-02T17:59:21Z</time>
      </trkpt>
      <trkpt lat="44.20076" lon="2.22044">
        <ele>359</ele>
        <time>2020-02-02T17:59:29Z</time>
      </trkpt>
      <trkpt lat="44.20068" lon="2.22048">
        <ele>361</ele>
        <time>2020-02-02T17:59:36Z</time>
      </trkpt>
      <trkpt lat="44.20038" lon="2.22028">
        <ele>363</ele>
        <time>2020-02-02T18:00:03Z</time>
      </trkpt>
      <trkpt lat="44.20033" lon="2.2203">
        <ele>364</ele>
        <time>2020-02-02T18:00:07Z</time>
      </trkpt>
      <trkpt lat="44.20026" lon="2.22018">
        <ele>362</ele>
        <time>2020-02-02T18:00:16Z</time>
      </trkpt>
      <trkpt lat="44.20007" lon="2.2195">
        <ele>362</ele>
        <time>2020-02-02T18:00:58Z</time>
      </trkpt>
      <trkpt lat="44.19997" lon="2.21936">
        <ele>362</ele>
        <time>2020-02-02T18:01:09Z</time>
      </trkpt>
      <trkpt lat="44.19966" lon="2.21918">
        <ele>359</ele>
        <time>2020-02-02T18:01:36Z</time>
      </trkpt>
      <trkpt lat="44.19954" lon="2.21906">
        <ele>360</ele>
        <time>2020-02-02T18:01:48Z</time>
      </trkpt>
      <trkpt lat="44.19911" lon="2.21916">
        <ele>354</ele>
        <time>2020-02-02T18:02:23Z</time>
      </trkpt>
      <trkpt lat="44.19906" lon="2.21909">
        <ele>356</ele>
        <time>2020-02-02T18:02:28Z</time>
      </trkpt>
      <trkpt lat="44.19902" lon="2.21886">
        <ele>359</ele>
        <time>2020-02-02T18:02:42Z</time>
      </trkpt>
      <trkpt lat="44.19874" lon="2.21848">
        <ele>361</ele>
        <time>2020-02-02T18:03:13Z</time>
      </trkpt>
      <trkpt lat="44.19856" lon="2.21837">
        <ele>358</ele>
        <time>2020-02-02T18:03:29Z</time>
      </trkpt>
      <trkpt lat="44.19821" lon="2.21828">
        <ele>357</ele>
        <time>2020-02-02T18:03:57Z</time>
      </trkpt>
      <trkpt lat="44.19824" lon="2.21831">
        <ele>356</ele>
        <time>2020-02-02T18:04:00Z</time>
      </trkpt>
      <trkpt lat="44.19811" lon="2.21817">
        <ele>359</ele>
        <time>2020-02-02T18:04:13Z</time>
      </trkpt>
      <trkpt lat="44.19801" lon="2.21819">
        <ele>358</ele>
        <time>2020-02-02T18:04:22Z</time>
      </trkpt>
      <trkpt lat="44.19778" lon="2.21807">
        <ele>360</ele>
        <time>2020-02-02T18:04:41Z</time>
      </trkpt>
      <trkpt lat="44.1974" lon="2.21768">
        <ele>361</ele>
        <time>2020-02-02T18:05:19Z</time>
      </trkpt>
      <trkpt lat="44.19716" lon="2.21754">
        <ele>360</ele>
        <time>2020-02-02T18:05:40Z</time>
      </trkpt>
      <trkpt lat="44.19688" lon="2.21745">
        <ele>359</ele>
        <time>2020-02-02T18:06:03Z</time>
      </trkpt>
      <trkpt lat="44.1965" lon="2.21722">
        <ele>360</ele>
        <time>2020-02-02T18:06:36Z</time>
      </trkpt>
      <trkpt lat="44.19642" lon="2.21713">
        <ele>361</ele>
        <time>2020-02-02T18:06:44Z</time>
      </trkpt>
      <trkpt lat="44.19633" lon="2.21686">
        <ele>363</ele>
        <time>2020-02-02T18:07:01Z</time>
      </trkpt>
      <trkpt lat="44.19613" lon="2.21664">
        <ele>360</ele>
        <time>2020-02-02T18:07:22Z</time>
      </trkpt>
      <trkpt lat="44.19606" lon="2.21649">
        <ele>363</ele>
        <time>2020-02-02T18:07:32Z</time>
      </trkpt>
      <trkpt lat="44.19592" lon="2.21636">
        <ele>364</ele>
        <time>2020-02-02T18:07:45Z</time>
      </trkpt>
      <trkpt lat="44.1959" lon="2.21645">
        <ele>360</ele>
        <time>2020-02-02T18:07:51Z</time>
      </trkpt>
      <trkpt lat="44.19586" lon="2.21632">
        <ele>364</ele>
        <time>2020-02-02T18:07:59Z</time>
      </trkpt>
      <trkpt lat="44.19555" lon="2.21604">
        <ele>367</ele>
        <time>2020-02-02T18:08:29Z</time>
      </trkpt>
      <trkpt lat="44.19537" lon="2.21594">
        <ele>365</ele>
        <time>2020-02-02T18:08:44Z</time>
      </trkpt>
      <trkpt lat="44.19493" lon="2.21588">
        <ele>357</ele>
        <time>2020-02-02T18:09:19Z</time>
      </trkpt>
      <trkpt lat="44.1947" lon="2.21578">
        <ele>358</ele>
        <time>2020-02-02T18:09:39Z</time>
      </trkpt>
      <trkpt lat="44.19425" lon="2.21567">
        <ele>359</ele>
        <time>2020-02-02T18:10:15Z</time>
      </trkpt>
      <trkpt lat="44.19392" lon="2.21551">
        <ele>367</ele>
        <time>2020-02-02T18:10:43Z</time>
      </trkpt>
      <trkpt lat="44.19383" lon="2.21536">
        <ele>373</ele>
        <time>2020-02-02T18:10:54Z</time>
      </trkpt>
      <trkpt lat="44.19371" lon="2.21536">
        <ele>374</ele>
        <time>2020-02-02T18:11:04Z</time>
      </trkpt>
      <trkpt lat="44.19363" lon="2.21546">
        <ele>372</ele>
        <time>2020-02-02T18:11:13Z</time>
      </trkpt>
      <trkpt lat="44.19349" lon="2.21587">
        <ele>359</ele>
        <time>2020-02-02T18:11:39Z</time>
      </trkpt>
      <trkpt lat="44.19309" lon="2.21613">
        <ele>363</ele>
        <time>2020-02-02T18:12:14Z</time>
      </trkpt>
      <trkpt lat="44.19309" lon="2.21633">
        <ele>358</ele>
        <time>2020-02-02T18:12:26Z</time>
      </trkpt>
      <trkpt lat="44.1932" lon="2.21628">
        <ele>356</ele>
        <time>2020-02-02T18:12:35Z</time>
      </trkpt>
      <trkpt lat="44.19324" lon="2.21634">
        <ele>354</ele>
        <time>2020-02-02T18:12:40Z</time>
      </trkpt>
      <trkpt lat="44.19317" lon="2.21635">
        <ele>355</ele>
        <time>2020-02-02T18:12:45Z</time>
      </trkpt>
      <trkpt lat="44.19315" lon="2.21643">
        <ele>354</ele>
        <time>2020-02-02T18:12:50Z</time>
      </trkpt>
      <trkpt lat="44.19302" lon="2.21649">
        <ele>356</ele>
        <time>2020-02-02T18:13:01Z</time>
      </trkpt>
      <trkpt lat="44.19296" lon="2.21641">
        <ele>360</ele>
        <time>2020-02-02T18:13:08Z</time>
      </trkpt>
      <trkpt lat="44.19276" lon="2.21669">
        <ele>359</ele>
        <time>2020-02-02T18:13:30Z</time>
      </trkpt>
      <trkpt lat="44.19267" lon="2.21715">
        <ele>357</ele>
        <time>2020-02-02T18:13:58Z</time>
      </trkpt>
      <trkpt lat="44.1927" lon="2.21757">
        <ele>352</ele>
        <time>2020-02-02T18:14:22Z</time>
      </trkpt>
      <trkpt lat="44.19259" lon="2.2178">
        <ele>352</ele>
        <time>2020-02-02T18:14:38Z</time>
      </trkpt>
      <trkpt lat="44.19267" lon="2.21809">
        <ele>348</ele>
        <time>2020-02-02T18:14:56Z</time>
      </trkpt>
      <trkpt lat="44.19274" lon="2.21818">
        <ele>347</ele>
        <time>2020-02-02T18:15:03Z</time>
      </trkpt>
      <trkpt lat="44.19256" lon="2.21816">
        <ele>349</ele>
        <time>2020-02-02T18:15:18Z</time>
      </trkpt>
      <trkpt lat="44.19234" lon="2.21825">
        <ele>348</ele>
        <time>2020-02-02T18:15:36Z</time>
      </trkpt>
      <trkpt lat="44.19224" lon="2.21819">
        <ele>348</ele>
        <time>2020-02-02T18:15:45Z</time>
      </trkpt>
      <trkpt lat="44.19195" lon="2.21754">
        <ele>360</ele>
        <time>2020-02-02T18:16:29Z</time>
      </trkpt>
      <trkpt lat="44.19159" lon="2.2171">
        <ele>376</ele>
        <time>2020-02-02T18:17:07Z</time>
      </trkpt>
      <trkpt lat="44.19121" lon="2.21698">
        <ele>380</ele>
        <time>2020-02-02T18:17:38Z</time>
      </trkpt>
      <trkpt lat="44.19076" lon="2.21713">
        <ele>377</ele>
        <time>2020-02-02T18:18:15Z</time>
      </trkpt>
      <trkpt lat="44.19047" lon="2.21704">
        <ele>381</ele>
        <time>2020-02-02T18:18:39Z</time>
      </trkpt>
      <trkpt lat="44.19019" lon="2.21708">
        <ele>382</ele>
        <time>2020-02-02T18:19:02Z</time>
      </trkpt>
      <trkpt lat="44.19005" lon="2.21706">
        <ele>383</ele>
        <time>2020-02-02T18:19:13Z</time>
      </trkpt>
      <trkpt lat="44.18985" lon="2.21694">
        <ele>385</ele>
        <time>2020-02-02T18:19:30Z</time>
      </trkpt>
      <trkpt lat="44.18954" lon="2.21665">
        <ele>389</ele>
        <time>2020-02-02T18:20:00Z</time>
      </trkpt>
      <trkpt lat="44.18947" lon="2.21668">
        <ele>388</ele>
        <time>2020-02-02T18:20:06Z</time>
      </trkpt>
      <trkpt lat="44.18942" lon="2.21676">
        <ele>384</ele>
        <time>2020-02-02T18:20:12Z</time>
      </trkpt>
      <trkpt lat="44.18929" lon="2.21657">
        <ele>388</ele>
        <time>2020-02-02T18:20:27Z</time>
      </trkpt>
      <trkpt lat="44.18885" lon="2.21633">
        <ele>391</ele>
        <time>2020-02-02T18:21:05Z</time>
      </trkpt>
      <trkpt lat="44.18872" lon="2.21616">
        <ele>395</ele>
        <time>2020-02-02T18:21:19Z</time>
      </trkpt>
      <trkpt lat="44.18854" lon="2.21614">
        <ele>394</ele>
        <time>2020-02-02T18:21:34Z</time>
      </trkpt>
      <trkpt lat="44.18835" lon="2.21622">
        <ele>390</ele>
        <time>2020-02-02T18:21:50Z</time>
      </trkpt>
      <trkpt lat="44.18821" lon="2.21659">
        <ele>376</ele>
        <time>2020-02-02T18:22:14Z</time>
      </trkpt>
      <trkpt lat="44.18812" lon="2.21652">
        <ele>377</ele>
        <time>2020-02-02T18:22:22Z</time>
      </trkpt>
      <trkpt lat="44.18812" lon="2.21659">
        <ele>375</ele>
        <time>2020-02-02T18:22:26Z</time>
      </trkpt>
      <trkpt lat="44.18807" lon="2.21656">
        <ele>375</ele>
        <time>2020-02-02T18:22:30Z</time>
      </trkpt>
      <trkpt lat="44.188" lon="2.21661">
        <ele>373</ele>
        <time>2020-02-02T18:22:37Z</time>
      </trkpt>
      <trkpt lat="44.18786" lon="2.21689">
        <ele>362</ele>
        <time>2020-02-02T18:22:56Z</time>
      </trkpt>
      <trkpt lat="44.18755" lon="2.21718">
        <ele>351</ele>
        <time>2020-02-02T18:23:26Z</time>
      </trkpt>
      <trkpt lat="44.18743" lon="2.21735">
        <ele>343</ele>
        <time>2020-02-02T18:23:40Z</time>
      </trkpt>
      <trkpt lat="44.18736" lon="2.2175">
        <ele>337</ele>
        <time>2020-02-02T18:23:50Z</time>
      </trkpt>
      <trkpt lat="44.18739" lon="2.21762">
        <ele>336</ele>
        <time>2020-02-02T18:23:57Z</time>
      </trkpt>
      <trkpt lat="44.18726" lon="2.21766">
        <ele>332</ele>
        <time>2020-02-02T18:24:08Z</time>
      </trkpt>
      <trkpt lat="44.18723" lon="2.21771">
        <ele>331</ele>
        <time>2020-02-02T18:24:12Z</time>
      </trkpt>
      <trkpt lat="44.18728" lon="2.21783">
        <ele>331</ele>
        <time>2020-02-02T18:24:20Z</time>
      </trkpt>
      <trkpt lat="44.18726" lon="2.21787">
        <ele>331</ele>
        <time>2020-02-02T18:24:23Z</time>
      </trkpt>
      <trkpt lat="44.1873" lon="2.21785">
        <ele>332</ele>
        <time>2020-02-02T18:24:26Z</time>
      </trkpt>
      <trkpt lat="44.18725" lon="2.21788">
        <ele>330</ele>
        <time>2020-02-02T18:24:30Z</time>
      </trkpt>
      <trkpt lat="44.18732" lon="2.21784">
        <ele>332</ele>
        <time>2020-02-02T18:24:36Z</time>
      </trkpt>
      <trkpt lat="44.18726" lon="2.2179">
        <ele>330</ele>
        <time>2020-02-02T18:24:42Z</time>
      </trkpt>
      <trkpt lat="44.18729" lon="2.21825">
        <ele>328</ele>
        <time>2020-02-02T18:25:03Z</time>
      </trkpt>
      <trkpt lat="44.18723" lon="2.21812">
        <ele>328</ele>
        <time>2020-02-02T18:25:11Z</time>
      </trkpt>
      <trkpt lat="44.18731" lon="2.21781">
        <ele>332</ele>
        <time>2020-02-02T18:25:30Z</time>
      </trkpt>
      <trkpt lat="44.18725" lon="2.21773">
        <ele>331</ele>
        <time>2020-02-02T18:25:37Z</time>
      </trkpt>
      <trkpt lat="44.18726" lon="2.21765">
        <ele>332</ele>
        <time>2020-02-02T18:25:42Z</time>
      </trkpt>
      <trkpt lat="44.18733" lon="2.21758">
        <ele>335</ele>
        <time>2020-02-02T18:25:49Z</time>
      </trkpt>
      <trkpt lat="44.18739" lon="2.21761">
        <ele>336</ele>
        <time>2020-02-02T18:25:54Z</time>
      </trkpt>
      <trkpt lat="44.18735" lon="2.21756">
        <ele>336</ele>
        <time>2020-02-02T18:25:58Z</time>
      </trkpt>
      <trkpt lat="44.1875" lon="2.21722">
        <ele>349</ele>
        <time>2020-02-02T18:26:21Z</time>
      </trkpt>
      <trkpt lat="44.18793" lon="2.2166">
        <ele>372</ele>
        <time>2020-02-02T18:27:10Z</time>
      </trkpt>
      <trkpt lat="44.18786" lon="2.21658">
        <ele>372</ele>
        <time>2020-02-02T18:27:16Z</time>
      </trkpt>
      <trkpt lat="44.18772" lon="2.21663">
        <ele>369</ele>
        <time>2020-02-02T18:27:28Z</time>
      </trkpt>
      <trkpt lat="44.18767" lon="2.21659">
        <ele>370</ele>
        <time>2020-02-02T18:27:32Z</time>
      </trkpt>
      <trkpt lat="44.18752" lon="2.2163">
        <ele>378</ele>
        <time>2020-02-02T18:27:53Z</time>
      </trkpt>
      <trkpt lat="44.18739" lon="2.21617">
        <ele>378</ele>
        <time>2020-02-02T18:28:06Z</time>
      </trkpt>
      <trkpt lat="44.18739" lon="2.21588">
        <ele>387</ele>
        <time>2020-02-02T18:28:22Z</time>
      </trkpt>
      <trkpt lat="44.18734" lon="2.21593">
        <ele>384</ele>
        <time>2020-02-02T18:28:27Z</time>
      </trkpt>
      <trkpt lat="44.18739" lon="2.21591">
        <ele>386</ele>
        <time>2020-02-02T18:28:31Z</time>
      </trkpt>
      <trkpt lat="44.18732" lon="2.21581">
        <ele>387</ele>
        <time>2020-02-02T18:28:39Z</time>
      </trkpt>
      <trkpt lat="44.18723" lon="2.2158">
        <ele>385</ele>
        <time>2020-02-02T18:28:47Z</time>
      </trkpt>
      <trkpt lat="44.18708" lon="2.21566">
        <ele>384</ele>
        <time>2020-02-02T18:29:01Z</time>
      </trkpt>
      <trkpt lat="44.18676" lon="2.21521">
        <ele>390</ele>
        <time>2020-02-02T18:29:37Z</time>
      </trkpt>
      <trkpt lat="44.18656" lon="2.21518">
        <ele>387</ele>
        <time>2020-02-02T18:29:54Z</time>
      </trkpt>
      <trkpt lat="44.18626" lon="2.2149">
        <ele>391</ele>
        <time>2020-02-02T18:30:23Z</time>
      </trkpt>
      <trkpt lat="44.18605" lon="2.2148">
        <ele>391</ele>
        <time>2020-02-02T18:30:40Z</time>
      </trkpt>
      <trkpt lat="44.18571" lon="2.21473">
        <ele>391</ele>
        <time>2020-02-02T18:31:08Z</time>
      </trkpt>
      <trkpt lat="44.18546" lon="2.21481">
        <ele>391</ele>
        <time>2020-02-02T18:31:28Z</time>
      </trkpt>
      <trkpt lat="44.18533" lon="2.21479">
        <ele>392</ele>
        <time>2020-02-02T18:31:39Z</time>
      </trkpt>
      <trkpt lat="44.18535" lon="2.21484">
        <ele>391</ele>
        <time>2020-02-02T18:31:42Z</time>
      </trkpt>
      <trkpt lat="44.18526" lon="2.21476">
        <ele>394</ele>
        <time>2020-02-02T18:31:51Z</time>
      </trkpt>
      <trkpt lat="44.18486" lon="2.21478">
        <ele>398</ele>
        <time>2020-02-02T18:32:23Z</time>
      </trkpt>
      <trkpt lat="44.18476" lon="2.21497">
        <ele>396</ele>
        <time>2020-02-02T18:32:36Z</time>
      </trkpt>
      <trkpt lat="44.1846" lon="2.21561">
        <ele>378</ele>
        <time>2020-02-02T18:33:15Z</time>
      </trkpt>
      <trkpt lat="44.18418" lon="2.21642">
        <ele>372</ele>
        <time>2020-02-02T18:34:13Z</time>
      </trkpt>
      <trkpt lat="44.18395" lon="2.21658">
        <ele>372</ele>
        <time>2020-02-02T18:34:33Z</time>
      </trkpt>
      <trkpt lat="44.18338" lon="2.21663">
        <ele>379</ele>
        <time>2020-02-02T18:35:19Z</time>
      </trkpt>
      <trkpt lat="44.18289" lon="2.21709">
        <ele>370</ele>
        <time>2020-02-02T18:36:06Z</time>
      </trkpt>
      <trkpt lat="44.18265" lon="2.21705">
        <ele>373</ele>
        <time>2020-02-02T18:36:25Z</time>
      </trkpt>
      <trkpt lat="44.18261" lon="2.21712">
        <ele>371</ele>
        <time>2020-02-02T18:36:31Z</time>
      </trkpt>
      <trkpt lat="44.18249" lon="2.21683">
        <ele>380</ele>
        <time>2020-02-02T18:36:50Z</time>
      </trkpt>
      <trkpt lat="44.18238" lon="2.21679">
        <ele>381</ele>
        <time>2020-02-02T18:36:59Z</time>
      </trkpt>
      <trkpt lat="44.18227" lon="2.21659">
        <ele>386</ele>
        <time>2020-02-02T18:37:13Z</time>
      </trkpt>
      <trkpt lat="44.18219" lon="2.21654">
        <ele>387</ele>
        <time>2020-02-02T18:37:20Z</time>
      </trkpt>
      <trkpt lat="44.18186" lon="2.21644">
        <ele>388</ele>
        <time>2020-02-02T18:37:47Z</time>
      </trkpt>
      <trkpt lat="44.18154" lon="2.21654">
        <ele>383</ele>
        <time>2020-02-02T18:38:14Z</time>
      </trkpt>
      <trkpt lat="44.18139" lon="2.21652">
        <ele>380</ele>
        <time>2020-02-02T18:38:26Z</time>
      </trkpt>
      <trkpt lat="44.18134" lon="2.21647">
        <ele>380</ele>
        <time>2020-02-02T18:38:31Z</time>
      </trkpt>
      <trkpt lat="44.18113" lon="2.21593">
        <ele>391</ele>
        <time>2020-02-02T18:39:06Z</time>
      </trkpt>
      <trkpt lat="44.18115" lon="2.21565">
        <ele>394</ele>
        <time>2020-02-02T18:39:22Z</time>
      </trkpt>
      <trkpt lat="44.18126" lon="2.21548">
        <ele>396</ele>
        <time>2020-02-02T18:39:35Z</time>
      </trkpt>
      <trkpt lat="44.18142" lon="2.21537">
        <ele>399</ele>
        <time>2020-02-02T18:39:50Z</time>
      </trkpt>
      <trkpt lat="44.18145" lon="2.21544">
        <ele>399</ele>
        <time>2020-02-02T18:39:54Z</time>
      </trkpt>
      <trkpt lat="44.18181" lon="2.21535">
        <ele>403</ele>
        <time>2020-02-02T18:40:24Z</time>
      </trkpt>
      <trkpt lat="44.18197" lon="2.21513">
        <ele>406</ele>
        <time>2020-02-02T18:40:42Z</time>
      </trkpt>
      <trkpt lat="44.18205" lon="2.21493">
        <ele>407</ele>
        <time>2020-02-02T18:40:55Z</time>
      </trkpt>
      <trkpt lat="44.18221" lon="2.21474">
        <ele>409</ele>
        <time>2020-02-02T18:41:12Z</time>
      </trkpt>
      <trkpt lat="44.18271" lon="2.2145">
        <ele>414</ele>
        <time>2020-02-02T18:41:54Z</time>
      </trkpt>
      <trkpt lat="44.1829" lon="2.21451">
        <ele>416</ele>
        <time>2020-02-02T18:42:09Z</time>
      </trkpt>
      <trkpt lat="44.18316" lon="2.21446">
        <ele>419</ele>
        <time>2020-02-02T18:42:30Z</time>
      </trkpt>
      <trkpt lat="44.18349" lon="2.21432">
        <ele>421</ele>
        <time>2020-02-02T18:42:58Z</time>
      </trkpt>
      <trkpt lat="44.18362" lon="2.21411">
        <ele>423</ele>
        <time>2020-02-02T18:43:14Z</time>
      </trkpt>
      <trkpt lat="44.18407" lon="2.2136">
        <ele>426</ele>
        <time>2020-02-02T18:44:00Z</time>
      </trkpt>
      <trkpt lat="44.18422" lon="2.21325">
        <ele>429</ele>
        <time>2020-02-02T18:44:23Z</time>
      </trkpt>
      <trkpt lat="44.18429" lon="2.21294">
        <ele>431</ele>
        <time>2020-02-02T18:44:42Z</time>
      </trkpt>
      <trkpt lat="44.18432" lon="2.21246">
        <ele>434</ele>
        <time>2020-02-02T18:45:10Z</time>
      </trkpt>
      <trkpt lat="44.18444" lon="2.21215">
        <ele>435</ele>
        <time>2020-02-02T18:45:30Z</time>
      </trkpt>
      <trkpt lat="44.18436" lon="2.21202">
        <ele>435</ele>
        <time>2020-02-02T18:45:40Z</time>
      </trkpt>
      <trkpt lat="44.18432" lon="2.21204">
        <ele>435</ele>
        <time>2020-02-02T18:45:43Z</time>
      </trkpt>
      <trkpt lat="44.18434" lon="2.21201">
        <ele>435</ele>
        <time>2020-02-02T18:45:46Z</time>
      </trkpt>
      <trkpt lat="44.18413" lon="2.21219">
        <ele>434</ele>
        <time>2020-02-02T18:46:05Z</time>
      </trkpt>
      <trkpt lat="44.18403" lon="2.2122">
        <ele>434</ele>
        <time>2020-02-02T18:46:13Z</time>
      </trkpt>
      <trkpt lat="44.18391" lon="2.21212">
        <ele>433</ele>
        <time>2020-02-02T18:46:24Z</time>
      </trkpt>
      <trkpt lat="44.18393" lon="2.212">
        <ele>433</ele>
        <time>2020-02-02T18:46:31Z</time>
      </trkpt>
      <trkpt lat="44.1843" lon="2.21207">
        <ele>435</ele>
        <time>2020-02-02T18:47:01Z</time>
      </trkpt>
      <trkpt lat="44.18441" lon="2.212">
        <ele>435</ele>
        <time>2020-02-02T18:47:11Z</time>
      </trkpt>
      <trkpt lat="44.18445" lon="2.21191">
        <ele>436</ele>
        <time>2020-02-02T18:47:17Z</time>
      </trkpt>
      <trkpt lat="44.18454" lon="2.21189">
        <ele>436</ele>
        <time>2020-02-02T18:47:24Z</time>
      </trkpt>
      <trkpt lat="44.18473" lon="2.21203">
        <ele>436</ele>
        <time>2020-02-02T18:47:41Z</time>
      </trkpt>
      <trkpt lat="44.18475" lon="2.21199">
        <ele>436</ele>
        <time>2020-02-02T18:47:44Z</time>
      </trkpt>
      <trkpt lat="44.18489" lon="2.21196">
        <ele>437</ele>
        <time>2020-02-02T18:47:55Z</time>
      </trkpt>
      <trkpt lat="44.18531" lon="2.21166">
        <ele>438</ele>
        <time>2020-02-02T18:48:33Z</time>
      </trkpt>
      <trkpt lat="44.18567" lon="2.21126">
        <ele>438</ele>
        <time>2020-02-02T18:49:10Z</time>
      </trkpt>
      <trkpt lat="44.18634" lon="2.21088">
        <ele>437</ele>
        <time>2020-02-02T18:50:08Z</time>
      </trkpt>
      <trkpt lat="44.18659" lon="2.21064">
        <ele>435</ele>
        <time>2020-02-02T18:50:32Z</time>
      </trkpt>
      <trkpt lat="44.18664" lon="2.21063">
        <ele>435</ele>
        <time>2020-02-02T18:50:36Z</time>
      </trkpt>
      <trkpt lat="44.18701" lon="2.21089">
        <ele>436</ele>
        <time>2020-02-02T18:51:09Z</time>
      </trkpt>
      <trkpt lat="44.18729" lon="2.21098">
        <ele>436</ele>
        <time>2020-02-02T18:51:32Z</time>
      </trkpt>
      <trkpt lat="44.18753" lon="2.21112">
        <ele>437</ele>
        <time>2020-02-02T18:51:53Z</time>
      </trkpt>
      <trkpt lat="44.18791" lon="2.21123">
        <ele>438</ele>
        <time>2020-02-02T18:52:24Z</time>
      </trkpt>
      <trkpt lat="44.18834" lon="2.21115">
        <ele>438</ele>
        <time>2020-02-02T18:52:59Z</time>
      </trkpt>
      <trkpt lat="44.18847" lon="2.21108">
        <ele>437</ele>
        <time>2020-02-02T18:53:10Z</time>
      </trkpt>
      <trkpt lat="44.18858" lon="2.21086">
        <ele>436</ele>
        <time>2020-02-02T18:53:26Z</time>
      </trkpt>
      <trkpt lat="44.1888" lon="2.21067">
        <ele>434</ele>
        <time>2020-02-02T18:53:46Z</time>
      </trkpt>
      <trkpt lat="44.18893" lon="2.21065">
        <ele>434</ele>
        <time>2020-02-02T18:53:57Z</time>
      </trkpt>
      <trkpt lat="44.18913" lon="2.21075">
        <ele>435</ele>
        <time>2020-02-02T18:54:14Z</time>
      </trkpt>
      <trkpt lat="44.18921" lon="2.21075">
        <ele>435</ele>
        <time>2020-02-02T18:54:20Z</time>
      </trkpt>
      <trkpt lat="44.18944" lon="2.21059">
        <ele>435</ele>
        <time>2020-02-02T18:54:41Z</time>
      </trkpt>
      <trkpt lat="44.18957" lon="2.2106">
        <ele>435</ele>
        <time>2020-02-02T18:54:51Z</time>
      </trkpt>
      <trkpt lat="44.18965" lon="2.21067">
        <ele>435</ele>
        <time>2020-02-02T18:54:59Z</time>
      </trkpt>
      <trkpt lat="44.18973" lon="2.21068">
        <ele>435</ele>
        <time>2020-02-02T18:55:05Z</time>
      </trkpt>
      <trkpt lat="44.18992" lon="2.21059">
        <ele>435</ele>
        <time>2020-02-02T18:55:21Z</time>
      </trkpt>
      <trkpt lat="44.18999" lon="2.21048">
        <ele>435</ele>
        <time>2020-02-02T18:55:30Z</time>
      </trkpt>
      <trkpt lat="44.19004" lon="2.21024">
        <ele>435</ele>
        <time>2020-02-02T18:55:44Z</time>
      </trkpt>
      <trkpt lat="44.19028" lon="2.21005">
        <ele>436</ele>
        <time>2020-02-02T18:56:06Z</time>
      </trkpt>
      <trkpt lat="44.19038" lon="2.20966">
        <ele>438</ele>
        <time>2020-02-02T18:56:30Z</time>
      </trkpt>
      <trkpt lat="44.19075" lon="2.2092">
        <ele>442</ele>
        <time>2020-02-02T18:57:10Z</time>
      </trkpt>
      <trkpt lat="44.19077" lon="2.20909">
        <ele>443</ele>
        <time>2020-02-02T18:57:16Z</time>
      </trkpt>
      <trkpt lat="44.19079" lon="2.20911">
        <ele>443</ele>
        <time>2020-02-02T18:57:18Z</time>
      </trkpt>
      <trkpt lat="44.19079" lon="2.20885">
        <ele>445</ele>
        <time>2020-02-02T18:57:33Z</time>
      </trkpt>
      <trkpt lat="44.19082" lon="2.20904">
        <ele>444</ele>
        <time>2020-02-02T18:57:44Z</time>
      </trkpt>
      <trkpt lat="44.19077" lon="2.20898">
        <ele>444</ele>
        <time>2020-02-02T18:57:50Z</time>
      </trkpt>
      <trkpt lat="44.19069" lon="2.20809">
        <ele>450</ele>
        <time>2020-02-02T18:58:41Z</time>
      </trkpt>
      <trkpt lat="44.19068" lon="2.20757">
        <ele>453</ele>
        <time>2020-02-02T18:59:11Z</time>
      </trkpt>
      <trkpt lat="44.1907" lon="2.20741">
        <ele>454</ele>
        <time>2020-02-02T18:59:20Z</time>
      </trkpt>
      <trkpt lat="44.19074" lon="2.20737">
        <ele>455</ele>
        <time>2020-02-02T18:59:24Z</time>
      </trkpt>
      <trkpt lat="44.19073" lon="2.20711">
        <ele>456</ele>
        <time>2020-02-02T18:59:39Z</time>
      </trkpt>
      <trkpt lat="44.19104" lon="2.20667">
        <ele>460</ele>
        <time>2020-02-02T19:00:15Z</time>
      </trkpt>
      <trkpt lat="44.19112" lon="2.20678">
        <ele>459</ele>
        <time>2020-02-02T19:00:24Z</time>
      </trkpt>
      <trkpt lat="44.19107" lon="2.20678">
        <ele>459</ele>
        <time>2020-02-02T19:00:28Z</time>
      </trkpt>
      <trkpt lat="44.19102" lon="2.207">
        <ele>458</ele>
        <time>2020-02-02T19:00:41Z</time>
      </trkpt>
      <trkpt lat="44.19108" lon="2.20685">
        <ele>459</ele>
        <time>2020-02-02T19:00:51Z</time>
      </trkpt>
      <trkpt lat="44.19108" lon="2.20648">
        <ele>460</ele>
        <time>2020-02-02T19:01:12Z</time>
      </trkpt>
      <trkpt lat="44.19136" lon="2.20626">
        <ele>462</ele>
        <time>2020-02-02T19:01:38Z</time>
      </trkpt>
      <trkpt lat="44.19143" lon="2.20615">
        <ele>463</ele>
        <time>2020-02-02T19:01:46Z</time>
      </trkpt>
      <trkpt lat="44.19162" lon="2.20561">
        <ele>464</ele>
        <time>2020-02-02T19:02:21Z</time>
      </trkpt>
      <trkpt lat="44.19169" lon="2.20551">
        <ele>464</ele>
        <time>2020-02-02T19:02:29Z</time>
      </trkpt>
      <trkpt lat="44.19183" lon="2.20538">
        <ele>464</ele>
        <time>2020-02-02T19:02:42Z</time>
      </trkpt>
      <trkpt lat="44.19194" lon="2.20534">
        <ele>464</ele>
        <time>2020-02-02T19:02:51Z</time>
      </trkpt>
      <trkpt lat="44.19241" lon="2.20556">
        <ele>465</ele>
        <time>2020-02-02T19:03:31Z</time>
      </trkpt>
      <trkpt lat="44.19256" lon="2.20567">
        <ele>465</ele>
        <time>2020-02-02T19:03:44Z</time>
      </trkpt>
      <trkpt lat="44.1932" lon="2.20557">
        <ele>463</ele>
        <time>2020-02-02T19:04:36Z</time>
      </trkpt>
      <trkpt lat="44.19325" lon="2.2056">
        <ele>463</ele>
        <time>2020-02-02T19:04:40Z</time>
      </trkpt>
      <trkpt lat="44.1937" lon="2.20604">
        <ele>462</ele>
        <time>2020-02-02T19:05:24Z</time>
      </trkpt>
      <trkpt lat="44.19392" lon="2.20633">
        <ele>461</ele>
        <time>2020-02-02T19:05:49Z</time>
      </trkpt>
      <trkpt lat="44.19416" lon="2.20647">
        <ele>459</ele>
        <time>2020-02-02T19:06:09Z</time>
      </trkpt>
      <trkpt lat="44.19441" lon="2.20676">
        <ele>458</ele>
        <time>2020-02-02T19:06:35Z</time>
      </trkpt>
      <trkpt lat="44.19466" lon="2.20684">
        <ele>457</ele>
        <time>2020-02-02T19:06:56Z</time>
      </trkpt>
      <trkpt lat="44.19538" lon="2.20736">
        <ele>456</ele>
        <time>2020-02-02T19:08:01Z</time>
      </trkpt>
      <trkpt lat="44.19573" lon="2.20742">
        <ele>457</ele>
        <time>2020-02-02T19:08:29Z</time>
      </trkpt>
      <trkpt lat="44.19626" lon="2.20796">
        <ele>457</ele>
        <time>2020-02-02T19:09:22Z</time>
      </trkpt>
      <trkpt lat="44.19676" lon="2.20824">
        <ele>457</ele>
        <time>2020-02-02T19:10:05Z</time>
      </trkpt>
      <trkpt lat="44.19686" lon="2.20819">
        <ele>458</ele>
        <time>2020-02-02T19:10:13Z</time>
      </trkpt>
      <trkpt lat="44.1976" lon="2.20891">
        <ele>461</ele>
        <time>2020-02-02T19:11:26Z</time>
      </trkpt>
      <trkpt lat="44.19823" lon="2.2092">
        <ele>461</ele>
        <time>2020-02-02T19:12:19Z</time>
      </trkpt>
      <trkpt lat="44.19847" lon="2.20927">
        <ele>462</ele>
        <time>2020-02-02T19:12:38Z</time>
      </trkpt>
      <trkpt lat="44.19863" lon="2.20921">
        <ele>462</ele>
        <time>2020-02-02T19:12:52Z</time>
      </trkpt>
      <trkpt lat="44.19916" lon="2.20924">
        <ele>463</ele>
        <time>2020-02-02T19:13:34Z</time>
      </trkpt>
      <trkpt lat="44.19935" lon="2.20919">
        <ele>464</ele>
        <time>2020-02-02T19:13:50Z</time>
      </trkpt>
      <trkpt lat="44.19962" lon="2.20927">
        <ele>465</ele>
        <time>2020-02-02T19:14:12Z</time>
      </trkpt>
      <trkpt lat="44.19992" lon="2.20908">
        <ele>465</ele>
        <time>2020-02-02T19:14:38Z</time>
      </trkpt>
      <trkpt lat="44.2001" lon="2.20905">
        <ele>465</ele>
        <time>2020-02-02T19:14:53Z</time>
      </trkpt>
      <trkpt lat="44.20028" lon="2.20891">
        <ele>466</ele>
        <time>2020-02-02T19:15:09Z</time>
      </trkpt>
      <trkpt lat="44.20034" lon="2.20894">
        <ele>466</ele>
        <time>2020-02-02T19:15:14Z</time>
      </trkpt>
      <trkpt lat="44.20066" lon="2.20894">
        <ele>467</ele>
        <time>2020-02-02T19:15:40Z</time>
      </trkpt>
      <trkpt lat="44.20094" lon="2.20906">
        <ele>468</ele>
        <time>2020-02-02T19:16:03Z</time>
      </trkpt>
      <trkpt lat="44.20104" lon="2.20895">
        <ele>468</ele>
        <time>2020-02-02T19:16:13Z</time>
      </trkpt>
      <trkpt lat="44.20135" lon="2.209">
        <ele>468</ele>
        <time>2020-02-02T19:16:38Z</time>
      </trkpt>
      <trkpt lat="44.20143" lon="2.20906">
        <ele>468</ele>
        <time>2020-02-02T19:16:46Z</time>
      </trkpt>
      <trkpt lat="44.2015" lon="2.20915">
        <ele>468</ele>
        <time>2020-02-02T19:16:53Z</time>
      </trkpt>
      <trkpt lat="44.20156" lon="2.20936">
        <ele>467</ele>
        <time>2020-02-02T19:17:06Z</time>
      </trkpt>
      <trkpt lat="44.20161" lon="2.20941">
        <ele>466</ele>
        <time>2020-02-02T19:17:11Z</time>
      </trkpt>
      <trkpt lat="44.20168" lon="2.2094">
        <ele>466</ele>
        <time>2020-02-02T19:17:17Z</time>
      </trkpt>
      <trkpt lat="44.20183" lon="2.20957">
        <ele>465</ele>
        <time>2020-02-02T19:17:32Z</time>
      </trkpt>
      <trkpt lat="44.20193" lon="2.20981">
        <ele>464</ele>
        <time>2020-02-02T19:17:48Z</time>
      </trkpt>
      <trkpt lat="44.20199" lon="2.20987">
        <ele>463</ele>
        <time>2020-02-02T19:17:54Z</time>
      </trkpt>
      <trkpt lat="44.20225" lon="2.20993">
        <ele>463</ele>
        <time>2020-02-02T19:18:15Z</time>
      </trkpt>
      <trkpt lat="44.20234" lon="2.21">
        <ele>463</ele>
        <time>2020-02-02T19:18:24Z</time>
      </trkpt>
      <trkpt lat="44.20246" lon="2.21049">
        <ele>460</ele>
        <time>2020-02-02T19:18:53Z</time>
      </trkpt>
      <trkpt lat="44.20265" lon="2.21099">
        <ele>458</ele>
        <time>2020-02-02T19:19:26Z</time>
      </trkpt>
      <trkpt lat="44.20255" lon="2.21127">
        <ele>457</ele>
        <time>2020-02-02T19:19:44Z</time>
      </trkpt>
      <trkpt lat="44.20259" lon="2.21148">
        <ele>456</ele>
        <time>2020-02-02T19:19:56Z</time>
      </trkpt>
      <trkpt lat="44.20272" lon="2.21158">
        <ele>456</ele>
        <time>2020-02-02T19:20:08Z</time>
      </trkpt>
      <trkpt lat="44.20296" lon="2.21153">
        <ele>456</ele>
        <time>2020-02-02T19:20:28Z</time>
      </trkpt>
      <trkpt lat="44.20304" lon="2.2116">
        <ele>456</ele>
        <time>2020-02-02T19:20:35Z</time>
      </trkpt>
      <trkpt lat="44.20318" lon="2.21252">
        <ele>453</ele>
        <time>2020-02-02T19:21:29Z</time>
      </trkpt>
      <trkpt lat="44.20334" lon="2.21298">
        <ele>452</ele>
        <time>2020-02-02T19:21:58Z</time>
      </trkpt>
      <trkpt lat="44.20332" lon="2.21351">
        <ele>451</ele>
        <time>2020-02-02T19:22:29Z</time>
      </trkpt>
      <trkpt lat="44.20318" lon="2.21418">
        <ele>453</ele>
        <time>2020-02-02T19:23:09Z</time>
      </trkpt>
      <trkpt lat="44.20323" lon="2.21426">
        <ele>453</ele>
        <time>2020-02-02T19:23:15Z</time>
      </trkpt>
      <trkpt lat="44.20316" lon="2.21431">
        <ele>453</ele>
        <time>2020-02-02T19:23:21Z</time>
      </trkpt>
      <trkpt lat="44.20309" lon="2.21445">
        <ele>452</ele>
        <time>2020-02-02T19:23:31Z</time>
      </trkpt>
    </trkseg>
  </trk>
</gpx>